BVX32 EGLL-EBLG
Flight info
| Callsign | BVX32 |
|---|---|
| Flight time | 0h 45m |
| Altitude | 23000 |
| Route | BPK Q295 BRAIN P44 CLN L608 SUMUM/N0385F190 L608 SASKI L179 NIK |
| Aircraft | A359/H-SDE2E3GHIJ3J4J5LM1ORWXY/LB1D1 |
Departure
| Time | 2026-05-07 16:25 |
|---|---|
| Airport | London Heathrow Airport (EGLL) |
Arrival
| Time | 2026-05-07 17:10 |
|---|---|
| Airport | Liège Airport (EBLG) |
| Time | Latitude | Longitude | Altitude | Speed | Heading |
|---|---|---|---|---|---|
| 2026-05-07 15:50 | 51.47076 | -0.46595 | 96 ft | 0 kts | 58° |
| 2026-05-07 16:11 | 51.47073 | -0.46604 | 93 ft | 4 kts | 58° |
| 2026-05-07 16:11 | 51.47059 | -0.46641 | 93 ft | 4 kts | 58° |
| 2026-05-07 16:11 | 51.47048 | -0.46672 | 94 ft | 4 kts | 84° |
| 2026-05-07 16:11 | 51.47054 | -0.46707 | 92 ft | 4 kts | 142° |
| 2026-05-07 16:12 | 51.47077 | -0.46723 | 92 ft | 4 kts | 178° |
| 2026-05-07 16:12 | 51.47104 | -0.46724 | 92 ft | 4 kts | 180° |
| 2026-05-07 16:12 | 51.47113 | -0.46724 | 92 ft | 0 kts | 180° |
| 2026-05-07 16:16 | 51.47109 | -0.46724 | 92 ft | 3 kts | 179° |
| 2026-05-07 16:16 | 51.47069 | -0.46742 | 96 ft | 7 kts | 217° |
| 2026-05-07 16:16 | 51.47049 | -0.46821 | 96 ft | 9 kts | 261° |
| 2026-05-07 16:17 | 51.47005 | -0.46861 | 96 ft | 9 kts | 190° |
| 2026-05-07 16:17 | 51.46930 | -0.46863 | 93 ft | 12 kts | 180° |
| 2026-05-07 16:17 | 51.46841 | -0.46862 | 95 ft | 13 kts | 179° |
| 2026-05-07 16:17 | 51.46756 | -0.46881 | 97 ft | 9 kts | 225° |
| 2026-05-07 16:18 | 51.46748 | -0.46965 | 96 ft | 9 kts | 268° |
| 2026-05-07 16:18 | 51.46747 | -0.47080 | 96 ft | 12 kts | 269° |
| 2026-05-07 16:18 | 51.46745 | -0.47222 | 94 ft | 14 kts | 269° |
| 2026-05-07 16:18 | 51.46746 | -0.47375 | 96 ft | 15 kts | 270° |
| 2026-05-07 16:19 | 51.46745 | -0.47548 | 92 ft | 16 kts | 270° |
| 2026-05-07 16:19 | 51.46744 | -0.47737 | 92 ft | 18 kts | 270° |
| 2026-05-07 16:19 | 51.46744 | -0.47933 | 93 ft | 18 kts | 270° |
| 2026-05-07 16:19 | 51.46743 | -0.48128 | 92 ft | 17 kts | 270° |
| 2026-05-07 16:20 | 51.46743 | -0.48307 | 92 ft | 17 kts | 270° |
| 2026-05-07 16:20 | 51.46742 | -0.48439 | 92 ft | 12 kts | 270° |
| 2026-05-07 16:20 | 51.46742 | -0.48584 | 92 ft | 12 kts | 270° |
| 2026-05-07 16:20 | 51.46740 | -0.48698 | 93 ft | 6 kts | 262° |
| 2026-05-07 16:21 | 51.46709 | -0.48741 | 95 ft | 7 kts | 196° |
| 2026-05-07 16:21 | 51.46664 | -0.48747 | 94 ft | 6 kts | 183° |
| 2026-05-07 16:21 | 51.46628 | -0.48755 | 93 ft | 6 kts | 192° |
| 2026-05-07 16:21 | 51.46577 | -0.48780 | 95 ft | 9 kts | 198° |
| 2026-05-07 16:22 | 51.46515 | -0.48774 | 97 ft | 9 kts | 157° |
| 2026-05-07 16:22 | 51.46482 | -0.48706 | 96 ft | 8 kts | 110° |
| 2026-05-07 16:22 | 51.46478 | -0.48620 | 96 ft | 9 kts | 90° |
| 2026-05-07 16:22 | 51.46478 | -0.48603 | 96 ft | 0 kts | 90° |
| 2026-05-07 16:24 | 51.46478 | -0.48602 | 92 ft | 1 kts | 90° |
| 2026-05-07 16:24 | 51.46478 | -0.48375 | 93 ft | 51 kts | 89° |
| 2026-05-07 16:24 | 51.46482 | -0.47440 | 95 ft | 115 kts | 90° |
| 2026-05-07 16:25 | 51.46485 | -0.45867 | 204 ft | 157 kts | 89° |
| 2026-05-07 16:25 | 51.46502 | -0.44173 | 984 ft | 149 kts | 90° |
| 2026-05-07 16:25 | 51.46616 | -0.42427 | 1394 ft | 168 kts | 72° |
| 2026-05-07 16:25 | 51.47278 | -0.40874 | 1924 ft | 176 kts | 49° |
| 2026-05-07 16:26 | 51.48154 | -0.39334 | 2259 ft | 199 kts | 48° |
| 2026-05-07 16:26 | 51.49143 | -0.37573 | 2564 ft | 225 kts | 49° |
| 2026-05-07 16:26 | 51.50221 | -0.35589 | 2980 ft | 246 kts | 50° |
| 2026-05-07 16:26 | 51.50969 | -0.34184 | 3367 ft | 253 kts | 50° |
| 2026-05-07 16:27 | 51.52110 | -0.30827 | 4296 ft | 262 kts | 70° |
| 2026-05-07 16:27 | 51.52719 | -0.28038 | 4871 ft | 266 kts | 71° |
| 2026-05-07 16:27 | 51.53319 | -0.25214 | 5281 ft | 268 kts | 71° |
| 2026-05-07 16:27 | 51.54089 | -0.22525 | 5591 ft | 270 kts | 56° |
| 2026-05-07 16:28 | 51.55466 | -0.20507 | 5946 ft | 272 kts | 28° |
| 2026-05-07 16:28 | 51.57192 | -0.19215 | 6640 ft | 275 kts | 23° |
| 2026-05-07 16:28 | 51.58974 | -0.18059 | 7497 ft | 278 kts | 19° |
| 2026-05-07 16:28 | 51.60837 | -0.17138 | 8309 ft | 282 kts | 15° |
| 2026-05-07 16:29 | 51.62746 | -0.16276 | 9128 ft | 287 kts | 15° |
| 2026-05-07 16:29 | 51.64688 | -0.15385 | 9938 ft | 293 kts | 17° |
| 2026-05-07 16:29 | 51.66524 | -0.13888 | 10491 ft | 306 kts | 39° |
| 2026-05-07 16:29 | 51.67924 | -0.11211 | 10835 ft | 323 kts | 63° |
| 2026-05-07 16:30 | 51.68675 | -0.07724 | 11252 ft | 337 kts | 79° |
| 2026-05-07 16:30 | 51.69043 | -0.03963 | 11899 ft | 344 kts | 85° |
| 2026-05-07 16:30 | 51.69274 | -0.00102 | 12642 ft | 348 kts | 88° |
| 2026-05-07 16:30 | 51.69361 | 0.03833 | 13379 ft | 353 kts | 90° |
| 2026-05-07 16:31 | 51.69396 | 0.07808 | 14134 ft | 357 kts | 91° |
| 2026-05-07 16:31 | 51.69424 | 0.11835 | 14780 ft | 362 kts | 91° |
| 2026-05-07 16:31 | 51.69467 | 0.15926 | 15417 ft | 367 kts | 89° |
| 2026-05-07 16:31 | 51.69645 | 0.20074 | 16056 ft | 373 kts | 86° |
| 2026-05-07 16:32 | 51.69879 | 0.24267 | 16682 ft | 378 kts | 86° |
| 2026-05-07 16:32 | 51.70115 | 0.28466 | 17347 ft | 383 kts | 86° |
| 2026-05-07 16:32 | 51.70352 | 0.32766 | 18029 ft | 388 kts | 86° |
| 2026-05-07 16:32 | 51.70587 | 0.37135 | 18668 ft | 393 kts | 86° |
| 2026-05-07 16:33 | 51.70821 | 0.41546 | 19284 ft | 397 kts | 86° |
| 2026-05-07 16:33 | 51.71054 | 0.46009 | 19912 ft | 401 kts | 86° |
| 2026-05-07 16:33 | 51.71287 | 0.50510 | 20536 ft | 404 kts | 86° |
| 2026-05-07 16:33 | 51.71520 | 0.55049 | 21160 ft | 408 kts | 86° |
| 2026-05-07 16:34 | 51.71754 | 0.59635 | 21763 ft | 413 kts | 86° |
| 2026-05-07 16:34 | 51.71986 | 0.64214 | 22375 ft | 416 kts | 86° |
| 2026-05-07 16:34 | 51.72219 | 0.68888 | 22977 ft | 420 kts | 86° |
| 2026-05-07 16:34 | 51.72452 | 0.73597 | 23570 ft | 424 kts | 86° |
| 2026-05-07 16:35 | 51.72684 | 0.78364 | 24076 ft | 427 kts | 86° |
| 2026-05-07 16:35 | 51.72900 | 0.83176 | 24571 ft | 431 kts | 87° |
| 2026-05-07 16:35 | 51.73003 | 0.86384 | 24897 ft | 433 kts | 88° |
| 2026-05-07 16:35 | 51.73053 | 0.92892 | 25556 ft | 436 kts | 95° |
| 2026-05-07 16:36 | 51.72888 | 0.96136 | 25892 ft | 438 kts | 97° |
| 2026-05-07 16:36 | 51.72509 | 1.01022 | 26417 ft | 440 kts | 99° |
| 2026-05-07 16:36 | 51.72034 | 1.05904 | 26916 ft | 442 kts | 101° |
| 2026-05-07 16:36 | 51.71512 | 1.10806 | 27401 ft | 445 kts | 101° |
| 2026-05-07 16:37 | 51.70978 | 1.15746 | 27872 ft | 449 kts | 101° |
| 2026-05-07 16:37 | 51.70444 | 1.20717 | 28342 ft | 452 kts | 101° |
| 2026-05-07 16:37 | 51.69911 | 1.25736 | 28800 ft | 455 kts | 101° |
| 2026-05-07 16:37 | 51.69381 | 1.30779 | 29256 ft | 458 kts | 101° |
| 2026-05-07 16:38 | 51.68852 | 1.35857 | 29689 ft | 461 kts | 101° |
| 2026-05-07 16:38 | 51.68319 | 1.40975 | 30026 ft | 465 kts | 101° |
| 2026-05-07 16:38 | 51.67791 | 1.46057 | 30070 ft | 451 kts | 101° |
| 2026-05-07 16:38 | 51.67286 | 1.50907 | 30068 ft | 437 kts | 101° |
| 2026-05-07 16:39 | 51.66782 | 1.55711 | 30074 ft | 434 kts | 101° |
| 2026-05-07 16:39 | 51.65771 | 1.65304 | 30076 ft | 434 kts | 101° |
| 2026-05-07 16:40 | 51.64745 | 1.74884 | 30075 ft | 434 kts | 101° |
| 2026-05-07 16:40 | 51.63716 | 1.84415 | 30075 ft | 434 kts | 101° |
| 2026-05-07 16:41 | 51.62676 | 1.93986 | 30063 ft | 434 kts | 101° |
| 2026-05-07 16:41 | 51.61629 | 2.03555 | 30069 ft | 434 kts | 101° |
| 2026-05-07 16:42 | 51.60578 | 2.13121 | 30076 ft | 434 kts | 101° |
| 2026-05-07 16:42 | 51.59526 | 2.22623 | 30072 ft | 434 kts | 101° |
| 2026-05-07 16:43 | 51.58475 | 2.31973 | 30075 ft | 434 kts | 101° |
| 2026-05-07 16:43 | 51.56802 | 2.41269 | 30070 ft | 432 kts | 110° |
| 2026-05-07 16:44 | 51.54763 | 2.50349 | 30073 ft | 431 kts | 112° |
| 2026-05-07 16:44 | 51.52668 | 2.59391 | 30075 ft | 433 kts | 112° |
| 2026-05-07 16:45 | 51.50561 | 2.68450 | 30078 ft | 433 kts | 112° |
| 2026-05-07 16:45 | 51.48471 | 2.77447 | 30075 ft | 433 kts | 112° |
| 2026-05-07 16:46 | 51.46363 | 2.86502 | 30075 ft | 433 kts | 112° |
| 2026-05-07 16:46 | 51.44250 | 2.95547 | 30018 ft | 433 kts | 112° |
| 2026-05-07 16:46 | 51.43177 | 3.00119 | 29750 ft | 443 kts | 112° |
| 2026-05-07 16:47 | 51.42089 | 3.04743 | 29477 ft | 441 kts | 112° |
| 2026-05-07 16:47 | 51.41015 | 3.09311 | 29139 ft | 434 kts | 112° |
| 2026-05-07 16:47 | 51.39956 | 3.13810 | 28713 ft | 428 kts | 112° |
| 2026-05-07 16:47 | 51.38924 | 3.18188 | 28296 ft | 424 kts | 112° |
| 2026-05-07 16:48 | 51.37884 | 3.22588 | 27855 ft | 419 kts | 112° |
| 2026-05-07 16:48 | 51.36852 | 3.26938 | 27424 ft | 415 kts | 112° |
| 2026-05-07 16:48 | 51.35831 | 3.31238 | 26985 ft | 411 kts | 112° |
| 2026-05-07 16:48 | 51.34815 | 3.35505 | 26569 ft | 408 kts | 112° |
| 2026-05-07 16:49 | 51.33826 | 3.39741 | 26152 ft | 405 kts | 111° |
| 2026-05-07 16:49 | 51.32896 | 3.43969 | 25737 ft | 402 kts | 110° |
| 2026-05-07 16:49 | 51.32077 | 3.48253 | 25365 ft | 408 kts | 105° |
| 2026-05-07 16:49 | 51.31461 | 3.52724 | 24996 ft | 415 kts | 102° |
| 2026-05-07 16:50 | 51.30905 | 3.57264 | 24631 ft | 416 kts | 102° |
| 2026-05-07 16:50 | 51.30356 | 3.61799 | 24273 ft | 414 kts | 102° |
| 2026-05-07 16:50 | 51.29814 | 3.66257 | 23919 ft | 412 kts | 102° |
| 2026-05-07 16:50 | 51.29268 | 3.70735 | 23554 ft | 410 kts | 102° |
| 2026-05-07 16:51 | 51.28723 | 3.75199 | 23136 ft | 407 kts | 102° |
| 2026-05-07 16:51 | 51.28001 | 3.79547 | 22710 ft | 403 kts | 112° |
| 2026-05-07 16:51 | 51.26713 | 3.83482 | 22310 ft | 398 kts | 125° |
| 2026-05-07 16:51 | 51.25147 | 3.87107 | 21868 ft | 396 kts | 127° |
| 2026-05-07 16:52 | 51.23620 | 3.90749 | 21196 ft | 398 kts | 122° |
| 2026-05-07 16:52 | 51.22317 | 3.94684 | 20505 ft | 401 kts | 116° |
| 2026-05-07 16:52 | 51.21186 | 3.98743 | 20039 ft | 398 kts | 114° |
| 2026-05-07 16:52 | 51.20156 | 4.02799 | 19596 ft | 393 kts | 112° |
| 2026-05-07 16:53 | 51.19177 | 4.06857 | 19163 ft | 389 kts | 111° |
| 2026-05-07 16:53 | 51.18238 | 4.10875 | 18721 ft | 385 kts | 111° |
| 2026-05-07 16:53 | 51.17314 | 4.14860 | 18290 ft | 381 kts | 111° |
| 2026-05-07 16:53 | 51.16113 | 4.18566 | 17861 ft | 374 kts | 127° |
| 2026-05-07 16:54 | 51.14357 | 4.21578 | 17426 ft | 368 kts | 138° |
| 2026-05-07 16:54 | 51.12498 | 4.24255 | 17134 ft | 363 kts | 139° |
| 2026-05-07 16:54 | 51.10615 | 4.26935 | 17073 ft | 364 kts | 139° |
| 2026-05-07 16:54 | 51.08724 | 4.29637 | 17071 ft | 364 kts | 139° |
| 2026-05-07 16:55 | 51.06847 | 4.32325 | 16936 ft | 361 kts | 139° |
| 2026-05-07 16:55 | 51.04975 | 4.35009 | 16210 ft | 365 kts | 139° |
| 2026-05-07 16:55 | 51.03074 | 4.37735 | 15499 ft | 370 kts | 139° |
| 2026-05-07 16:55 | 51.01159 | 4.40481 | 14902 ft | 370 kts | 139° |
| 2026-05-07 16:56 | 50.99274 | 4.43182 | 14364 ft | 369 kts | 139° |
| 2026-05-07 16:56 | 50.97364 | 4.45915 | 13807 ft | 367 kts | 139° |
| 2026-05-07 16:56 | 50.93602 | 4.51291 | 12848 ft | 358 kts | 139° |
| 2026-05-07 16:57 | 50.91771 | 4.53904 | 12428 ft | 351 kts | 139° |
| 2026-05-07 16:57 | 50.89965 | 4.56476 | 12026 ft | 345 kts | 139° |
| 2026-05-07 16:57 | 50.88215 | 4.58969 | 11628 ft | 339 kts | 139° |
| 2026-05-07 16:57 | 50.86470 | 4.61450 | 11240 ft | 334 kts | 139° |
| 2026-05-07 16:58 | 50.84760 | 4.63878 | 10938 ft | 325 kts | 139° |
| 2026-05-07 16:58 | 50.83108 | 4.66224 | 10815 ft | 313 kts | 139° |
| 2026-05-07 16:58 | 50.81521 | 4.68474 | 10680 ft | 301 kts | 139° |
| 2026-05-07 16:58 | 50.79991 | 4.70642 | 10469 ft | 292 kts | 139° |
| 2026-05-07 16:59 | 50.78488 | 4.72767 | 10174 ft | 287 kts | 139° |
| 2026-05-07 16:59 | 50.77004 | 4.74864 | 9862 ft | 285 kts | 139° |
| 2026-05-07 16:59 | 50.75521 | 4.76957 | 9553 ft | 287 kts | 139° |
| 2026-05-07 16:59 | 50.74046 | 4.79076 | 9268 ft | 286 kts | 137° |
| 2026-05-07 17:00 | 50.72633 | 4.81280 | 8945 ft | 285 kts | 135° |
| 2026-05-07 17:00 | 50.71262 | 4.83523 | 8646 ft | 283 kts | 134° |
| 2026-05-07 17:00 | 50.69908 | 4.85768 | 8339 ft | 281 kts | 134° |
| 2026-05-07 17:00 | 50.68553 | 4.88002 | 8017 ft | 280 kts | 134° |
| 2026-05-07 17:01 | 50.67220 | 4.90178 | 7730 ft | 278 kts | 135° |
| 2026-05-07 17:01 | 50.65873 | 4.92355 | 7423 ft | 276 kts | 135° |
| 2026-05-07 17:01 | 50.64528 | 4.94513 | 7117 ft | 274 kts | 135° |
| 2026-05-07 17:01 | 50.63201 | 4.96631 | 6838 ft | 269 kts | 135° |
| 2026-05-07 17:02 | 50.61902 | 4.98698 | 6582 ft | 263 kts | 135° |
| 2026-05-07 17:02 | 50.60631 | 5.00718 | 6319 ft | 257 kts | 135° |
| 2026-05-07 17:02 | 50.59387 | 5.02696 | 6058 ft | 252 kts | 135° |
| 2026-05-07 17:02 | 50.58161 | 5.04642 | 5784 ft | 247 kts | 135° |
| 2026-05-07 17:03 | 50.56977 | 5.06522 | 5518 ft | 242 kts | 135° |
| 2026-05-07 17:03 | 50.55786 | 5.08412 | 5267 ft | 238 kts | 135° |
| 2026-05-07 17:03 | 50.54642 | 5.10225 | 5023 ft | 233 kts | 135° |
| 2026-05-07 17:03 | 50.53510 | 5.12000 | 4843 ft | 226 kts | 135° |
| 2026-05-07 17:04 | 50.52407 | 5.13723 | 4647 ft | 220 kts | 135° |
| 2026-05-07 17:04 | 50.51336 | 5.15396 | 4448 ft | 213 kts | 135° |
| 2026-05-07 17:04 | 50.50308 | 5.17029 | 4295 ft | 205 kts | 132° |
| 2026-05-07 17:04 | 50.49576 | 5.18875 | 4100 ft | 196 kts | 108° |
| 2026-05-07 17:05 | 50.49589 | 5.20921 | 3928 ft | 186 kts | 73° |
| 2026-05-07 17:05 | 50.50146 | 5.22732 | 3746 ft | 185 kts | 52° |
| 2026-05-07 17:05 | 50.51041 | 5.24186 | 3569 ft | 185 kts | 43° |
| 2026-05-07 17:05 | 50.51955 | 5.25609 | 3401 ft | 184 kts | 46° |
| 2026-05-07 17:06 | 50.52838 | 5.27022 | 3232 ft | 177 kts | 46° |
| 2026-05-07 17:06 | 50.53678 | 5.28376 | 3042 ft | 169 kts | 46° |
| 2026-05-07 17:06 | 50.54466 | 5.29646 | 2977 ft | 162 kts | 46° |
| 2026-05-07 17:06 | 50.55259 | 5.30918 | 2763 ft | 162 kts | 46° |
| 2026-05-07 17:07 | 50.56047 | 5.32173 | 2546 ft | 160 kts | 45° |
| 2026-05-07 17:07 | 50.56824 | 5.33410 | 2331 ft | 156 kts | 45° |
| 2026-05-07 17:07 | 50.57584 | 5.34621 | 2137 ft | 155 kts | 45° |
| 2026-05-07 17:07 | 50.58332 | 5.35812 | 1917 ft | 149 kts | 45° |
| 2026-05-07 17:08 | 50.59043 | 5.36943 | 1741 ft | 143 kts | 45° |
| 2026-05-07 17:08 | 50.59740 | 5.38054 | 1545 ft | 142 kts | 45° |
| 2026-05-07 17:08 | 50.60428 | 5.39148 | 1362 ft | 143 kts | 45° |
| 2026-05-07 17:08 | 50.61129 | 5.40263 | 1166 ft | 142 kts | 45° |
| 2026-05-07 17:09 | 50.61823 | 5.41369 | 1011 ft | 142 kts | 45° |
| 2026-05-07 17:09 | 50.62520 | 5.42478 | 806 ft | 142 kts | 45° |
| 2026-05-07 17:09 | 50.63220 | 5.43588 | 662 ft | 143 kts | 44° |
| 2026-05-07 17:09 | 50.63877 | 5.44627 | 631 ft | 114 kts | 45° |
| 2026-05-07 17:10 | 50.64286 | 5.45275 | 621 ft | 65 kts | 45° |
| 2026-05-07 17:10 | 50.64539 | 5.45679 | 631 ft | 41 kts | 45° |
| 2026-05-07 17:10 | 50.64679 | 5.45900 | 631 ft | 19 kts | 45° |
| 2026-05-07 17:10 | 50.64750 | 5.46012 | 626 ft | 6 kts | 46° |
| 2026-05-07 17:11 | 50.64762 | 5.46090 | 622 ft | 9 kts | 104° |
| 2026-05-07 17:11 | 50.64730 | 5.46161 | 628 ft | 5 kts | 136° |
| 2026-05-07 17:11 | 50.64721 | 5.46175 | 632 ft | 0 kts | 137° |
| 2026-05-07 17:11 | 50.64713 | 5.46186 | 633 ft | 4 kts | 137° |
| 2026-05-07 17:12 | 50.64693 | 5.46211 | 633 ft | 3 kts | 150° |
| 2026-05-07 17:12 | 50.64666 | 5.46214 | 634 ft | 4 kts | 186° |
| 2026-05-07 17:12 | 50.64635 | 5.46189 | 629 ft | 6 kts | 216° |
| 2026-05-07 17:12 | 50.64600 | 5.46136 | 635 ft | 8 kts | 225° |
| 2026-05-07 17:13 | 50.64556 | 5.46066 | 635 ft | 10 kts | 225° |
| 2026-05-07 17:13 | 50.64520 | 5.46009 | 635 ft | 8 kts | 226° |
| 2026-05-07 17:13 | 50.64499 | 5.45980 | 631 ft | 3 kts | 209° |
| 2026-05-07 17:13 | 50.64481 | 5.45981 | 630 ft | 2 kts | 172° |
| 2026-05-07 17:14 | 50.64464 | 5.45995 | 633 ft | 2 kts | 142° |
| 2026-05-07 17:14 | 50.64455 | 5.46016 | 630 ft | 3 kts | 127° |
| 2026-05-07 17:14 | 50.64449 | 5.46029 | 635 ft | 0 kts | 127° |
| 2026-05-07 17:14 | 50.64441 | 5.46042 | 633 ft | 4 kts | 132° |
| 2026-05-07 17:15 | 50.64436 | 5.46050 | 634 ft | 0 kts | 133° |
| 2026-05-07 17:15 | 50.64436 | 5.46051 | 635 ft | 0 kts | 133° |